Aérodrome :
LOGIN :

S'inscrire | Disclaimer

   EN    FR    IT 

 










Légende :    VFR   VFR Marginal   IFR   IFR Intensif   IFR Très Intensif
Visi : 
Plafond : 
>= 8 km
>= 3000ft
5 à 8 km
1000 à 3000 ft
1500m à 5 km
500 à 1000 ft
800 à 1500m
200 à 500 ft
< 800m
< 200 ft
Symboles :   Orages  Brouillard  Fortes neiges  Fortes précipitations  Vent > 20 kt
SIGMETs :   Divers  Orages  Givrage  Turbulence  Onde Orograph.  Cendres Volcan.







- Altitude de l'aérodrome : 870 ft
- Code IATA : ETZ
- Voir les cartes d'approche


LFJL - Metz Nancy Lorraine

DERNIER METAR :
  • 212330Z AUTO 19006KT 4000 BR NSC M07/M07 Q1018 NOSIG

METARs EXPIRÉS :
  • 212300Z AUTO 17007KT 3700 BR NSC M07/M08 Q1018 BECMG 2500 BR
  • 212230Z AUTO 16008KT 3700 BR NSC M06/M07 Q1018 BECMG 2500 BR
  • 212200Z AUTO 16007KT 3700 BR NSC M06/M07 Q1019 NOSIG
  • 212130Z AUTO 16007KT 3900 BR NSC M06/M06 Q1019 NOSIG
  • 212100Z AUTO 16006KT 4300 BR NSC M06/M06 Q1019 NOSIG
  • 212030Z AUTO 15006KT 4400 BR NSC M06/M06 Q1019 NOSIG

TAF TAF LFJL
Valide du 22 à 00h jusqu'au 23 à 00h UTC


212300Z 2200/2224 17006KT 3000 BR NSC
TEMPO 2202/2209 1200 BCFG
BECMG 2210/2212 8000 NSW
BECMG 2217/2219 3000 -SN BR OVC005
TEMPO 2219/2222 1000 SN OVC002
Pas de NOTAMs connus pour ce terrain.



MET'MAP, la Météo Aéronautique d'un coup d'oeil ! - Copyright ORBIFLY Décembre 2007 - Disclaimer

ORBIFLY MET'MAP TEAM :

Programmation & Développement : Alexandra Zaïnal
Conception & Développement : Baudouin d'Aumeries
Co-Programmation & Développement : Marc-Olivier Méhu
Soutien technique & logistique : Manuel Goepfert

Contact : metmap@orbifly.com




SOURCES & CREDITS :

   NOAA